Time;durP1;ratioP1;P1;durP2;ratioP2;P2;SDS_P1;SDS_P2;PMS_P1;PMS_P2;Temp;Humidity;BMP_temperature;BMP_pressure;BME280_temperature;BME280_humidity;BME280_pressure;Samples;Min_cycle;Max_cycle;Signal;HPM_P1;HPM_P2
2022/05/25 00:00:19;;;;;;;19.75;14.05;;;12.20;99.90;;;;;;4915338;29;20059;-88
2022/05/25 00:02:46;;;;;;;23.92;15.30;;;12.20;99.90;;;;;;4914914;29;20052;-89
2022/05/25 00:05:15;;;;;;;29.15;18.83;;;12.10;99.90;;;;;;4913209;29;20398;-90
2022/05/25 00:07:42;;;;;;;23.75;15.40;;;12.10;99.90;;;;;;4918734;29;20039;-89
2022/05/25 00:10:10;;;;;;;22.55;15.75;;;12.10;99.90;;;;;;4946276;28;20099;-90
2022/05/25 00:12:41;;;;;;;19.20;14.23;;;12.00;99.90;;;;;;4957084;28;20143;-90
2022/05/25 00:15:12;;;;;;;20.10;15.35;;;12.00;99.90;;;;;;4947773;28;20047;-90
2022/05/25 00:17:39;;;;;;;20.27;16.17;;;12.00;99.90;;;;;;4926368;29;20059;-90
2022/05/25 00:20:07;;;;;;;19.80;13.95;;;12.00;99.90;;;;;;4927315;29;20051;-90
2022/05/25 00:22:52;;;;;;;22.52;16.98;;;12.00;99.90;;;;;;4923895;29;20047;-89
2022/05/25 00:25:27;;;;;;;22.52;15.55;;;12.00;99.90;;;;;;4930349;28;20055;-90
2022/05/25 00:27:55;;;;;;;23.45;17.40;;;11.90;99.90;;;;;;4951354;28;20050;-89
2022/05/25 00:30:24;;;;;;;19.60;14.38;;;12.00;99.90;;;;;;4930867;29;20051;-89
2022/05/25 00:32:51;;;;;;;24.50;17.45;;;11.90;99.90;;;;;;4948696;28;20043;-89
2022/05/25 00:35:21;;;;;;;24.23;15.05;;;11.90;99.90;;;;;;4941537;28;20067;-90
2022/05/25 00:37:48;;;;;;;23.00;15.87;;;11.90;99.90;;;;;;4922591;29;20051;-89
2022/05/25 00:40:28;;;;;;;21.73;16.38;;;11.80;99.90;;;;;;4926886;28;20106;-89
2022/05/25 00:42:55;;;;;;;22.17;13.77;;;11.80;99.90;;;;;;4937241;28;20129;-89
2022/05/25 00:45:22;;;;;;;26.45;14.95;;;11.80;99.90;;;;;;4929117;28;20058;-89
2022/05/25 00:47:51;;;;;;;25.17;17.48;;;11.80;99.90;;;;;;4937367;28;20052;-90
2022/05/25 00:50:22;;;;;;;25.73;14.52;;;11.80;99.90;;;;;;4929286;29;20448;-90
2022/05/25 00:52:50;;;;;;;22.92;14.13;;;11.80;99.90;;;;;;4924261;28;20059;-90
2022/05/25 00:55:28;;;;;;;22.92;14.85;;;11.70;99.90;;;;;;4925636;28;20493;-88
2022/05/25 00:57:58;;;;;;;20.58;14.75;;;11.70;99.90;;;;;;4942190;28;20085;-90
2022/05/25 01:00:26;;;;;;;;;;;11.70;99.90;;;;;;4944821;28;20043;-86
2022/05/25 01:03:08;;;;;;;19.50;13.48;;;11.70;99.90;;;;;;4918530;29;19922;-86
2022/05/25 01:06:00;;;;;;;21.77;14.40;;;11.70;99.90;;;;;;4939391;28;20048;-86
2022/05/25 01:08:27;;;;;;;22.42;14.82;;;11.70;99.90;;;;;;4941714;28;20058;-87
2022/05/25 01:11:13;;;;;;;22.45;15.27;;;11.60;99.90;;;;;;4939299;28;20803;-86
2022/05/25 01:14:19;;;;;;;16.90;11.93;;;11.60;99.90;;;;;;4924365;29;20419;-86
2022/05/25 01:17:12;;;;;;;20.10;15.32;;;11.70;99.90;;;;;;4931289;28;20043;-85
2022/05/25 01:19:42;;;;;;;23.05;16.02;;;11.70;99.90;;;;;;4938460;28;20063;-86
2022/05/25 01:22:28;;;;;;;22.10;14.10;;;11.60;99.90;;;;;;4939489;29;20408;-86
2022/05/25 01:25:12;;;;;;;18.73;14.73;;;11.70;99.90;;;;;;4923685;29;20583;-85
2022/05/25 01:27:47;;;;;;;20.40;13.23;;;11.60;99.90;;;;;;4926820;28;20043;-85
2022/05/25 01:30:21;;;;;;;22.77;15.35;;;11.70;99.90;;;;;;4928510;28;20584;-86
2022/05/25 01:33:07;;;;;;;20.73;14.95;;;11.70;99.90;;;;;;4945795;28;20080;-85
2022/05/25 01:35:40;;;;;;;22.45;16.52;;;11.70;99.90;;;;;;4942454;28;20118;-85
2022/05/25 01:38:22;;;;;;;19.73;13.93;;;11.70;99.90;;;;;;4930727;28;20053;-85
2022/05/25 01:41:12;;;;;;;19.08;14.05;;;11.70;99.90;;;;;;4916308;29;20528;-86
2022/05/25 01:43:42;;;;;;;;;;;11.70;99.90;;;;;;4938990;28;20059;-85
2022/05/25 01:46:16;;;;;;;16.40;13.00;;;11.70;99.90;;;;;;4934389;28;19937;-85
2022/05/25 01:48:46;;;;;;;16.08;12.43;;;11.70;99.90;;;;;;4927265;29;20062;-87
2022/05/25 01:51:33;;;;;;;16.48;12.82;;;11.70;99.90;;;;;;4927603;28;20074;-87
2022/05/25 01:54:05;;;;;;;18.67;14.52;;;11.70;99.90;;;;;;4926832;29;20051;-87
2022/05/25 01:56:37;;;;;;;15.50;12.83;;;11.70;99.90;;;;;;4919582;28;20075;-87
2022/05/25 01:59:08;;;;;;;14.65;11.40;;;11.70;99.90;;;;;;4924867;29;20135;-86
2022/05/25 02:01:36;;;;;;;15.18;12.10;;;11.70;99.90;;;;;;4911960;28;20055;-86
2022/05/25 02:04:21;;;;;;;16.52;12.27;;;11.70;99.90;;;;;;4944702;28;20071;-84
2022/05/25 02:07:18;;;;;;;16.38;14.60;;;11.70;99.90;;;;;;4927518;29;20058;-84
2022/05/25 02:09:58;;;;;;;16.98;13.77;;;11.70;99.90;;;;;;4939391;28;20039;-86
2022/05/25 02:12:44;;;;;;;;;;;11.70;99.90;;;;;;4911518;28;20053;-86
2022/05/25 02:15:24;;;;;;;19.33;15.38;;;11.70;99.90;;;;;;4940811;28;19926;-87
2022/05/25 02:17:51;;;;;;;;;;;11.60;99.90;;;;;;4950525;28;20039;-86
2022/05/25 02:20:45;;;;;;;19.27;17.05;;;11.60;99.90;;;;;;4940808;28;20397;-86
2022/05/25 02:23:33;;;;;;;18.60;14.77;;;11.60;99.90;;;;;;4925095;28;20069;-91
2022/05/25 02:26:03;;;;;;;17.95;16.05;;;11.70;99.90;;;;;;4928301;29;20055;-86
2022/05/25 02:28:35;;;;;;;17.77;15.80;;;11.60;99.90;;;;;;4938829;28;20516;-86
2022/05/25 02:31:06;;;;;;;19.73;16.80;;;11.60;99.90;;;;;;4942686;28;20059;-86
2022/05/25 02:33:49;;;;;;;18.85;15.15;;;11.60;99.90;;;;;;4923175;28;20115;-86
2022/05/25 02:36:18;;;;;;;16.05;14.40;;;11.60;99.90;;;;;;4944226;28;20055;-86
2022/05/25 02:38:45;;;;;;;15.80;13.32;;;11.70;99.90;;;;;;4929837;29;20051;-86
2022/05/25 02:41:34;;;;;;;17.25;15.57;;;11.70;99.90;;;;;;4938534;28;20043;-86
2022/05/25 02:44:02;;;;;;;15.60;13.88;;;11.70;99.90;;;;;;4930819;28;20479;-86
2022/05/25 02:46:30;;;;;;;16.98;15.30;;;11.70;99.90;;;;;;4944651;28;20114;-86
2022/05/25 02:48:57;;;;;;;16.02;13.48;;;11.70;99.90;;;;;;4933981;29;20050;-86
2022/05/25 02:51:24;;;;;;;15.40;13.35;;;11.70;99.90;;;;;;4945675;28;20114;-86
2022/05/25 02:53:51;;;;;;;14.93;13.32;;;11.70;99.90;;;;;;4928100;29;20055;-86
2022/05/25 02:56:18;;;;;;;14.88;12.88;;;11.70;99.90;;;;;;4928719;29;20516;-86
2022/05/25 02:58:45;;;;;;;13.43;11.88;;;11.70;99.90;;;;;;4925287;29;20079;-85
2022/05/25 03:01:12;;;;;;;15.88;13.70;;;11.80;99.90;;;;;;4923652;28;20052;-86
2022/05/25 03:03:39;;;;;;;19.50;13.80;;;11.80;99.90;;;;;;4926683;29;20051;-86
2022/05/25 03:06:08;;;;;;;13.50;11.95;;;11.80;99.90;;;;;;4946611;28;20043;-86
2022/05/25 03:08:35;;;;;;;14.52;11.80;;;11.80;99.90;;;;;;4947207;28;20062;-86
2022/05/25 03:11:05;;;;;;;19.67;14.30;;;11.80;99.90;;;;;;4947795;28;20635;-86
2022/05/25 03:13:33;;;;;;;14.30;12.88;;;11.80;99.90;;;;;;4928124;29;20054;-86
2022/05/25 03:16:00;;;;;;;15.73;14.13;;;11.90;99.90;;;;;;4941469;28;20499;-86
2022/05/25 03:18:28;;;;;;;14.77;13.30;;;11.90;99.90;;;;;;4951089;28;20051;-86
2022/05/25 03:20:55;;;;;;;15.75;13.43;;;11.90;99.90;;;;;;4927656;29;20136;-87
2022/05/25 03:23:22;;;;;;;18.80;15.02;;;11.90;99.90;;;;;;4920899;28;20047;-87
2022/05/25 03:25:49;;;;;;;14.30;12.90;;;11.90;99.90;;;;;;4921760;29;20067;-87
2022/05/25 03:28:17;;;;;;;17.33;14.48;;;11.90;99.90;;;;;;4931507;29;20071;-87
2022/05/25 03:30:46;;;;;;;17.25;12.93;;;11.90;99.90;;;;;;4927874;29;20082;-87
2022/05/25 03:33:14;;;;;;;15.98;14.30;;;12.00;99.90;;;;;;4929118;28;20087;-87
2022/05/25 03:35:43;;;;;;;14.80;13.30;;;12.00;99.90;;;;;;4948028;28;20110;-87
2022/05/25 03:38:10;;;;;;;14.73;12.45;;;12.00;99.90;;;;;;4953758;28;20050;-86
2022/05/25 03:40:38;;;;;;;13.63;12.25;;;12.00;99.90;;;;;;4947758;28;20097;-86
2022/05/25 03:43:08;;;;;;;14.07;12.73;;;12.00;99.90;;;;;;4948868;28;20058;-86
2022/05/25 03:45:34;;;;;;;14.15;12.75;;;12.10;99.90;;;;;;4946604;28;20634;-86
2022/05/25 03:48:07;;;;;;;14.60;11.65;;;12.10;99.90;;;;;;4927427;28;20099;-86
2022/05/25 03:50:40;;;;;;;13.60;12.20;;;12.00;99.90;;;;;;4938896;28;20048;-86
2022/05/25 03:53:10;;;;;;;12.90;11.70;;;12.10;99.90;;;;;;4943163;28;20039;-86
2022/05/25 03:55:37;;;;;;;12.73;11.43;;;12.00;99.90;;;;;;4924462;29;20043;-86
2022/05/25 03:58:04;;;;;;;11.93;10.75;;;12.00;99.90;;;;;;4922124;29;20114;-86
2022/05/25 04:00:32;;;;;;;11.55;10.43;;;12.00;99.90;;;;;;4946125;28;20102;-87
2022/05/25 04:03:02;;;;;;;12.70;10.63;;;12.10;99.90;;;;;;4929081;29;20051;-86
2022/05/25 04:05:31;;;;;;;10.07;9.07;;;12.20;99.90;;;;;;4926119;28;20512;-86
2022/05/25 04:07:58;;;;;;;12.43;11.13;;;12.20;99.90;;;;;;4941844;28;20055;-86
2022/05/25 04:10:29;;;;;;;10.32;9.32;;;12.30;99.90;;;;;;4918613;29;20472;-86
2022/05/25 04:12:56;;;;;;;9.88;8.88;;;12.40;99.90;;;;;;4908484;29;20072;-86
2022/05/25 04:15:26;;;;;;;9.15;8.25;;;12.40;99.90;;;;;;4925382;29;20055;-86
2022/05/25 04:17:54;;;;;;;11.40;9.50;;;12.50;99.90;;;;;;4930609;29;20047;-86
2022/05/25 04:20:22;;;;;;;11.15;9.82;;;12.50;99.90;;;;;;4907723;29;20090;-86
2022/05/25 04:22:50;;;;;;;9.57;8.40;;;12.50;99.90;;;;;;4924950;29;20549;-86
2022/05/25 04:25:20;;;;;;;13.63;9.48;;;12.50;99.90;;;;;;4906202;29;20056;-86
2022/05/25 04:27:49;;;;;;;10.52;9.43;;;12.50;99.90;;;;;;4909856;29;20243;-86
2022/05/25 04:30:20;;;;;;;9.90;8.82;;;12.60;99.90;;;;;;4907686;29;20051;-86
2022/05/25 04:32:47;;;;;;;9.80;8.85;;;12.60;99.90;;;;;;4904748;29;20044;-86
2022/05/25 04:35:16;;;;;;;10.98;9.35;;;12.60;99.90;;;;;;4908160;29;20048;-86
2022/05/25 04:37:49;;;;;;;10.35;9.25;;;12.70;99.90;;;;;;4909416;29;20051;-86
2022/05/25 04:40:22;;;;;;;10.70;9.05;;;12.60;99.90;;;;;;4896688;29;20051;-87
2022/05/25 04:42:50;;;;;;;11.10;9.93;;;12.60;99.90;;;;;;4913523;29;20486;-84
2022/05/25 04:45:18;;;;;;;10.93;9.05;;;12.60;99.90;;;;;;4894041;29;20047;-84
2022/05/25 04:47:45;;;;;;;11.13;9.25;;;12.60;99.90;;;;;;4901815;29;20067;-84
2022/05/25 04:50:16;;;;;;;14.10;10.30;;;12.60;99.90;;;;;;4918636;29;20040;-86
2022/05/25 04:52:43;;;;;;;11.65;9.82;;;12.50;99.90;;;;;;4912158;29;20421;-86
2022/05/25 04:57:19;;;;;;;14.35;11.77;;;12.50;99.90;;;;;;4900377;29;20077;-86
2022/05/25 04:57:58;;;;;;;11.85;10.18;;;12.40;99.90;;;;;;4920802;29;20061;-86
2022/05/25 05:00:28;;;;;;;9.25;7.50;;;12.40;99.90;;;;;;4904519;29;20081;-86
2022/05/25 05:02:55;;;;;;;12.73;9.32;;;12.30;99.90;;;;;;4920802;29;20043;-86
2022/05/25 05:05:22;;;;;;;11.85;8.65;;;12.30;99.90;;;;;;4913987;29;20573;-86
2022/05/25 05:07:49;;;;;;;12.23;8.73;;;12.30;99.90;;;;;;4916781;29;20040;-84
2022/05/25 05:10:16;;;;;;;12.05;9.88;;;12.30;99.90;;;;;;4929558;28;20050;-85
2022/05/25 05:12:43;;;;;;;10.52;8.65;;;12.20;99.90;;;;;;4935481;28;20353;-85
2022/05/25 05:15:11;;;;;;;10.73;7.97;;;12.10;99.90;;;;;;4936876;28;20086;-85
2022/05/25 05:17:38;;;;;;;8.05;6.30;;;12.10;99.90;;;;;;4935572;28;20058;-85
2022/05/25 05:20:22;;;;;;;8.85;7.82;;;12.10;99.90;;;;;;4934518;28;20098;-85
2022/05/25 05:22:49;;;;;;;7.22;6.63;;;12.20;99.90;;;;;;4932343;28;20047;-87
2022/05/25 05:25:16;;;;;;;7.50;6.25;;;12.20;99.90;;;;;;4934306;28;20103;-87
2022/05/25 05:27:45;;;;;;;6.97;6.28;;;12.30;99.90;;;;;;4936123;28;20047;-87
2022/05/25 05:30:15;;;;;;;5.68;5.18;;;12.20;99.90;;;;;;4938148;28;20049;-87
2022/05/25 05:32:42;;;;;;;11.40;7.90;;;12.30;99.90;;;;;;4940102;28;20619;-88
2022/05/25 05:35:09;;;;;;;7.35;5.93;;;12.30;99.90;;;;;;4941795;28;20464;-88
2022/05/25 05:38:02;;;;;;;9.85;7.35;;;12.40;99.90;;;;;;4938490;28;20164;-87
2022/05/25 05:40:30;;;;;;;10.95;7.53;;;12.40;99.90;;;;;;4931830;28;20062;-87
2022/05/25 05:43:02;;;;;;;12.65;7.97;;;12.40;99.90;;;;;;4942569;28;21719;-87
2022/05/25 05:45:34;;;;;;;11.13;8.02;;;12.40;99.90;;;;;;4923002;28;20051;-88
2022/05/25 05:48:16;;;;;;;8.85;7.10;;;12.50;99.90;;;;;;4943298;28;20054;-88
2022/05/25 05:50:43;;;;;;;10.27;7.80;;;12.50;99.90;;;;;;4936541;28;20102;-88
2022/05/25 05:53:12;;;;;;;10.95;8.52;;;12.60;99.90;;;;;;4939490;28;20146;-88
2022/05/25 05:55:44;;;;;;;9.95;7.72;;;12.70;99.90;;;;;;4904888;29;20047;-88
2022/05/25 05:58:11;;;;;;;9.85;8.05;;;12.70;99.90;;;;;;4942351;28;20051;-88
2022/05/25 06:00:39;;;;;;;12.73;8.07;;;12.60;99.90;;;;;;4936952;28;20043;-88
2022/05/25 06:03:06;;;;;;;10.95;6.97;;;12.70;99.90;;;;;;4941885;28;20515;-88
2022/05/25 06:05:33;;;;;;;8.73;7.85;;;12.70;99.90;;;;;;4942715;28;20126;-89
2022/05/25 06:08:09;;;;;;;8.60;7.72;;;12.70;99.90;;;;;;4924708;28;20508;-88
2022/05/25 06:10:37;;;;;;;12.27;8.20;;;12.70;99.90;;;;;;4911984;29;20043;-89
2022/05/25 06:13:05;;;;;;;11.00;8.10;;;12.80;99.90;;;;;;4920422;29;20048;-88
2022/05/25 06:21:06;;;;;;;10.77;7.65;;;12.90;99.90;;;;;;4898895;29;20079;-88
2022/05/25 06:23:33;;;;;;;10.98;7.63;;;12.90;99.90;;;;;;4888916;29;20051;-89
2022/05/25 06:26:03;;;;;;;11.00;7.25;;;12.80;99.90;;;;;;4913287;29;20472;-89
2022/05/25 06:28:53;;;;;;;11.40;8.95;;;12.70;99.90;;;;;;4914958;29;20081;-88
2022/05/25 06:31:23;;;;;;;10.15;8.27;;;12.70;99.90;;;;;;4888856;29;20402;-88
2022/05/25 06:33:50;;;;;;;15.10;8.32;;;12.70;99.90;;;;;;4905183;29;20048;-88
2022/05/25 06:36:32;;;;;;;10.07;7.72;;;12.70;99.90;;;;;;4917306;29;20061;-89
2022/05/25 06:38:59;;;;;;;10.32;8.07;;;12.70;99.90;;;;;;4897987;29;20941;-88
2022/05/25 06:41:26;;;;;;;13.00;8.60;;;12.70;99.90;;;;;;4922631;29;20074;-88
2022/05/25 06:43:53;;;;;;;9.60;7.10;;;12.80;99.90;;;;;;4915835;29;20104;-88
2022/05/25 06:46:21;;;;;;;8.48;7.55;;;12.90;99.90;;;;;;4919173;28;20044;-89
2022/05/25 06:48:54;;;;;;;9.73;8.43;;;12.90;99.90;;;;;;4904937;29;20433;-88
2022/05/25 06:51:30;;;;;;;10.10;7.90;;;12.90;99.90;;;;;;4919309;29;20079;-89
2022/05/25 06:54:05;;;;;;;10.35;8.23;;;13.00;99.90;;;;;;4922443;28;20044;-89
2022/05/25 06:56:32;;;;;;;9.68;7.80;;;13.00;99.90;;;;;;4918864;29;20404;-88
2022/05/25 06:59:00;;;;;;;7.75;6.95;;;13.00;99.90;;;;;;4915616;29;20088;-88
2022/05/25 07:01:30;;;;;;;7.88;7.07;;;13.00;99.90;;;;;;4911223;28;20054;-88
2022/05/25 07:03:58;;;;;;;8.55;7.10;;;13.10;99.90;;;;;;4900902;29;20052;-88
2022/05/25 07:06:25;;;;;;;9.45;7.68;;;13.30;99.90;;;;;;4898467;29;20055;-89
2022/05/25 07:08:53;;;;;;;8.75;6.50;;;13.30;99.90;;;;;;4905564;29;20039;-89
2022/05/25 07:11:21;;;;;;;8.77;6.82;;;13.50;99.90;;;;;;4927791;28;20058;-89
2022/05/25 07:13:49;;;;;;;7.45;6.60;;;13.70;99.90;;;;;;4923843;28;20046;-89
2022/05/25 07:16:17;;;;;;;7.10;5.95;;;13.80;99.90;;;;;;4935399;28;20043;-89
2022/05/25 07:18:46;;;;;;;9.43;7.13;;;13.90;99.90;;;;;;4942207;28;20480;-88
2022/05/25 07:21:14;;;;;;;8.70;7.80;;;13.80;99.90;;;;;;4906665;28;20047;-88
2022/05/25 07:23:43;;;;;;;9.05;7.68;;;13.80;99.90;;;;;;4927249;29;20090;-89
2022/05/25 07:26:11;;;;;;;8.70;7.88;;;13.80;99.90;;;;;;4943545;28;20091;-89
2022/05/25 07:28:38;;;;;;;9.15;8.25;;;13.90;99.90;;;;;;4903087;29;20102;-89
2022/05/25 07:31:13;;;;;;;9.75;8.52;;;13.80;99.90;;;;;;4940568;28;20573;-89
2022/05/25 07:33:44;;;;;;;10.75;8.07;;;13.90;99.90;;;;;;4923621;29;20079;-89
2022/05/25 07:36:12;;;;;;;;;;;14.00;99.90;;;;;;4918488;28;20055;-89
2022/05/25 07:38:44;;;;;;;11.43;9.05;;;14.10;99.90;;;;;;4922036;28;20045;-89
2022/05/25 07:41:11;;;;;;;8.23;7.43;;;14.10;99.90;;;;;;4943891;28;20066;-89
2022/05/25 07:43:41;;;;;;;10.38;9.27;;;14.20;99.90;;;;;;4942047;28;20114;-89
2022/05/25 07:46:08;;;;;;;9.32;7.80;;;14.20;99.90;;;;;;4938656;28;20054;-88
2022/05/25 07:48:36;;;;;;;8.98;8.10;;;14.30;99.90;;;;;;4944065;28;20051;-89
2022/05/25 07:51:04;;;;;;;8.68;7.78;;;14.40;99.90;;;;;;4913840;29;20051;-90
2022/05/25 07:56:18;;;;;;;9.10;8.23;;;14.70;99.90;;;;;;4943459;28;20142;-89
2022/05/25 07:58:45;;;;;;;10.73;9.60;;;14.70;99.90;;;;;;4927491;28;20054;-89
2022/05/25 08:01:15;;;;;;;10.60;9.27;;;14.70;99.90;;;;;;4943898;28;20055;-88
2022/05/25 08:06:31;;;;;;;12.68;11.38;;;14.60;99.90;;;;;;4938855;28;20528;-89
2022/05/25 08:09:02;;;;;;;10.77;9.65;;;14.60;99.90;;;;;;4925688;28;20496;-88
2022/05/25 08:11:30;;;;;;;12.25;10.98;;;14.70;99.90;;;;;;4909867;28;20055;-88
2022/05/25 08:13:57;;;;;;;14.40;11.25;;;14.60;99.90;;;;;;4926441;29;20039;-88
2022/05/25 08:16:24;;;;;;;12.00;10.02;;;14.50;99.90;;;;;;4908722;29;20058;-88
2022/05/25 08:18:51;;;;;;;10.20;9.13;;;14.40;99.90;;;;;;4908792;29;20106;-87
2022/05/25 08:21:18;;;;;;;12.93;10.65;;;14.40;99.90;;;;;;4908150;29;20044;-87
2022/05/25 08:24:05;;;;;;;11.70;9.90;;;14.40;99.90;;;;;;4924839;29;20142;-88
2022/05/25 08:26:32;;;;;;;13.32;10.38;;;14.40;99.90;;;;;;4903548;29;20131;-87
2022/05/25 08:28:59;;;;;;;11.15;10.05;;;14.40;99.90;;;;;;4922286;29;20071;-88
2022/05/25 08:31:26;;;;;;;11.38;10.23;;;14.40;99.90;;;;;;4900495;29;20044;-88
2022/05/25 08:33:54;;;;;;;13.35;11.07;;;14.50;99.90;;;;;;4920679;29;20048;-87
2022/05/25 08:36:21;;;;;;;11.10;9.98;;;14.40;99.90;;;;;;4908330;29;20518;-88
2022/05/25 08:38:48;;;;;;;13.73;11.23;;;14.40;99.90;;;;;;4924571;28;20707;-87
2022/05/25 08:41:15;;;;;;;14.45;12.93;;;14.40;99.90;;;;;;4924626;29;20062;-87
2022/05/25 08:43:44;;;;;;;13.10;9.85;;;14.30;99.90;;;;;;4918993;29;20051;-87
2022/05/25 08:46:16;;;;;;;11.90;10.65;;;14.40;99.90;;;;;;4907616;29;20076;-87
2022/05/25 08:48:44;;;;;;;9.70;8.80;;;14.70;99.90;;;;;;4926225;29;20114;-87
2022/05/25 08:51:31;;;;;;;8.40;7.60;;;15.10;99.90;;;;;;4908206;29;20190;-88
2022/05/25 08:54:01;;;;;;;14.45;10.10;;;15.50;99.90;;;;;;4923100;28;20127;-88
2022/05/25 08:56:44;;;;;;;11.05;8.63;;;15.60;99.90;;;;;;4921604;29;20051;-88
2022/05/25 08:59:14;;;;;;;10.20;9.05;;;15.70;99.90;;;;;;4903808;29;20063;-88
2022/05/25 09:01:47;;;;;;;11.55;10.35;;;15.70;99.90;;;;;;4899909;29;20108;-87
2022/05/25 09:04:44;;;;;;;9.88;8.95;;;15.70;99.90;;;;;;4898738;29;20072;-87
2022/05/25 09:07:38;;;;;;;11.82;9.60;;;15.40;99.90;;;;;;4909037;29;20501;-88
2022/05/25 09:10:08;;;;;;;11.90;8.55;;;15.40;99.90;;;;;;4922948;28;20065;-88
2022/05/25 09:12:42;;;;;;;8.85;8.00;;;15.80;99.90;;;;;;4923907;28;20096;-88
2022/05/25 09:15:30;;;;;;;16.08;9.95;;;15.80;99.90;;;;;;4941707;28;20047;-87
2022/05/25 09:17:58;;;;;;;10.13;7.97;;;16.00;99.90;;;;;;4940628;28;20059;-89
2022/05/25 09:20:46;;;;;;;8.65;7.75;;;16.00;99.90;;;;;;4942056;28;20070;-88
2022/05/25 09:23:15;;;;;;;8.70;7.90;;;16.10;99.90;;;;;;4941386;28;20047;-88
2022/05/25 09:25:44;;;;;;;19.58;10.57;;;15.90;99.90;;;;;;4923483;28;20409;-88
2022/05/25 09:28:20;;;;;;;10.25;7.03;;;15.80;99.90;;;;;;4928879;29;20059;-88
2022/05/25 09:30:53;;;;;;;8.43;7.13;;;15.90;99.90;;;;;;4940049;28;20078;-88
2022/05/25 09:33:43;;;;;;;7.90;7.18;;;16.00;99.90;;;;;;4927235;28;20331;-87
2022/05/25 09:36:20;;;;;;;10.88;8.20;;;16.10;99.90;;;;;;4929241;29;20094;-89
2022/05/25 09:38:56;;;;;;;8.32;7.40;;;16.10;99.90;;;;;;4929521;29;20059;-88
2022/05/25 09:41:25;;;;;;;9.15;7.72;;;15.90;99.90;;;;;;4920554;28;20408;-88
2022/05/25 09:43:54;;;;;;;12.30;8.07;;;15.90;99.90;;;;;;4942459;28;20062;-89
2022/05/25 09:46:58;;;;;;;8.65;7.93;;;15.80;99.90;;;;;;4941557;28;20139;-88
2022/05/25 09:49:40;;;;;;;9.98;9.00;;;15.70;99.90;;;;;;4914641;28;20118;-88
2022/05/25 09:52:43;;;;;;;8.93;8.07;;;15.40;99.90;;;;;;4921474;29;20043;-87
2022/05/25 09:55:28;;;;;;;11.38;9.25;;;15.40;99.90;;;;;;4912004;29;20039;-88
2022/05/25 09:58:09;;;;;;;10.20;9.23;;;15.50;99.90;;;;;;4924734;28;20054;-88
2022/05/25 10:00:36;;;;;;;13.65;10.05;;;15.30;99.90;;;;;;4930198;29;20513;-88
2022/05/25 10:03:24;;;;;;;11.93;9.00;;;15.30;99.90;;;;;;4923279;28;20046;-88
2022/05/25 10:05:56;;;;;;;13.93;9.85;;;15.30;99.90;;;;;;4939569;28;20051;-88
2022/05/25 10:08:39;;;;;;;9.98;7.28;;;15.30;99.90;;;;;;4924440;28;20053;-89
2022/05/25 10:11:33;;;;;;;26.20;8.30;;;15.30;99.90;;;;;;4908931;29;20403;-88
2022/05/25 10:14:24;;;;;;;9.57;7.18;;;15.30;99.90;;;;;;4888969;29;20058;-89
2022/05/25 10:17:07;;;;;;;8.00;7.20;;;15.10;99.90;;;;;;4879249;29;20040;-89
2022/05/25 10:19:44;;;;;;;7.95;7.25;;;15.10;99.90;;;;;;4902230;29;20052;-89
2022/05/25 10:22:26;;;;;;;9.93;5.90;;;15.20;99.90;;;;;;4905729;29;20059;-88
2022/05/25 10:25:29;;;;;;;8.73;6.40;;;15.30;99.90;;;;;;4918849;29;20055;-88
2022/05/25 10:27:58;;;;;;;6.25;5.65;;;15.40;99.90;;;;;;4903696;29;20572;-87
2022/05/25 10:36:48;;;;;;;6.40;5.80;;;15.70;99.90;;;;;;4900704;29;20577;-87
2022/05/25 10:39:39;;;;;;;5.22;4.53;;;16.00;99.90;;;;;;4898314;29;20085;-88
2022/05/25 10:42:21;;;;;;;6.80;6.05;;;16.00;99.90;;;;;;4915106;29;20127;-87
2022/05/25 10:45:28;;;;;;;5.80;5.25;;;16.20;99.90;;;;;;4920161;29;20072;-87
2022/05/25 10:48:37;;;;;;;5.95;5.45;;;16.30;99.90;;;;;;4917476;28;20047;-87
2022/05/25 10:51:10;;;;;;;5.75;5.20;;;16.40;99.90;;;;;;4913172;28;20535;-88
2022/05/25 10:56:56;;;;;;;4.35;3.78;;;16.70;99.90;;;;;;4917055;29;20041;-87
2022/05/25 11:00:08;;;;;;;6.47;4.60;;;16.60;99.90;;;;;;4916768;29;20054;-88
2022/05/25 11:02:57;;;;;;;6.28;5.72;;;16.60;99.90;;;;;;4892481;29;20052;-88
2022/05/25 11:05:44;;;;;;;3.50;3.22;;;16.60;99.90;;;;;;4918215;29;20804;-88
2022/05/25 11:08:17;;;;;;;6.65;3.20;;;16.80;99.90;;;;;;4920011;29;20108;-89
2022/05/25 11:11:03;;;;;;;4.70;3.97;;;16.50;99.90;;;;;;4933605;28;20110;-88
2022/05/25 11:14:01;;;;;;;3.60;3.30;;;16.20;99.90;;;;;;4925034;28;20567;-88
2022/05/25 11:16:34;;;;;;;4.13;3.83;;;16.10;99.90;;;;;;4947209;28;20071;-88
2022/05/25 11:19:14;;;;;;;5.22;4.72;;;16.00;99.90;;;;;;4890164;28;20066;-90
2022/05/25 11:21:46;;;;;;;3.90;3.55;;;16.10;99.90;;;;;;4942920;28;20090;-90
2022/05/25 11:24:28;;;;;;;7.00;3.38;;;16.20;99.90;;;;;;4929538;29;20074;-90
2022/05/25 11:27:19;;;;;;;9.30;4.07;;;16.20;99.90;;;;;;4928423;28;20589;-90
2022/05/25 11:29:59;;;;;;;6.38;3.70;;;16.40;99.90;;;;;;4922803;28;20316;-89
2022/05/25 11:32:53;;;;;;;3.65;3.08;;;16.20;99.90;;;;;;4927615;29;20044;-89
2022/05/25 11:35:39;;;;;;;3.78;2.80;;;16.30;99.90;;;;;;4928102;28;20074;-88
2022/05/25 11:38:21;;;;;;;4.13;2.97;;;16.40;99.90;;;;;;4944935;28;20134;-89
2022/05/25 11:40:54;;;;;;;3.80;2.67;;;16.60;99.90;;;;;;4940517;28;20574;-88
2022/05/25 11:44:00;;;;;;;2.50;2.30;;;16.90;99.90;;;;;;4940318;28;20235;-88
2022/05/25 11:46:43;;;;;;;3.13;2.83;;;17.00;99.90;;;;;;4948373;28;20046;-87
2022/05/25 11:49:57;;;;;;;7.18;2.55;;;17.20;99.90;;;;;;4923320;28;20511;-88
2022/05/25 11:52:24;;;;;;;3.78;2.00;;;17.50;99.90;;;;;;4942653;28;20051;-88
2022/05/25 11:55:08;;;;;;;3.80;2.42;;;17.30;99.90;;;;;;4943003;28;20052;-87
2022/05/25 11:58:20;;;;;;;3.22;2.47;;;17.30;99.90;;;;;;4942587;28;20055;-87
2022/05/25 12:00:56;;;;;;;2.30;1.92;;;17.10;99.90;;;;;;4947266;28;20066;-87
2022/05/25 12:04:02;;;;;;;2.20;2.00;;;17.10;99.90;;;;;;4945482;28;20722;-88
2022/05/25 12:06:52;;;;;;;1.83;1.73;;;17.10;99.90;;;;;;4913789;28;20106;-88
2022/05/25 12:09:39;;;;;;;5.82;2.65;;;17.40;99.90;;;;;;4927410;28;20058;-88
2022/05/25 12:12:24;;;;;;;4.70;2.63;;;17.30;99.90;;;;;;4910037;29;20047;-87
2022/05/25 12:15:31;;;;;;;3.33;2.67;;;17.50;99.90;;;;;;4922408;29;20546;-87
2022/05/25 12:18:14;;;;;;;4.55;2.40;;;17.50;99.90;;;;;;4926620;29;20262;-87
2022/05/25 12:21:05;;;;;;;3.78;2.30;;;17.30;99.90;;;;;;4893532;29;20063;-87
2022/05/25 12:23:36;;;;;;;5.40;2.42;;;17.30;99.90;;;;;;4918229;29;20458;-84
2022/05/25 12:26:14;;;;;;;3.97;2.55;;;17.40;99.90;;;;;;4911082;29;20493;-86
2022/05/25 12:28:44;;;;;;;4.40;2.30;;;17.40;99.90;;;;;;4928752;29;20413;-86
2022/05/25 12:31:18;;;;;;;5.75;2.65;;;17.40;99.90;;;;;;4929681;29;20059;-88
2022/05/25 12:33:46;;;;;;;4.00;2.15;;;17.50;99.90;;;;;;4926968;29;20063;-90
2022/05/25 12:36:15;;;;;;;3.33;2.80;;;17.60;99.90;;;;;;4926769;29;20052;-88
2022/05/25 12:38:42;;;;;;;3.45;2.83;;;17.60;99.90;;;;;;4926257;28;20150;-86
2022/05/25 12:41:32;;;;;;;2.60;2.40;;;17.60;99.90;;;;;;4921828;29;20050;-86
2022/05/25 12:50:00;;;;;;;2.67;2.28;;;18.00;99.90;;;;;;4921282;29;20465;-86
2022/05/25 12:52:27;;;;;;;3.97;2.00;;;18.20;99.90;;;;;;4910545;29;20975;-86
2022/05/25 12:55:13;;;;;;;4.45;2.33;;;18.30;99.90;;;;;;4899624;29;20044;-87
2022/05/25 12:57:51;;;;;;;1.77;1.67;;;18.50;99.90;;;;;;4926156;28;20043;-86
2022/05/25 13:00:33;;;;;;;1.90;1.80;;;18.60;99.90;;;;;;4922083;29;20052;-87
2022/05/25 13:03:21;;;;;;;2.35;1.45;;;18.70;99.90;;;;;;4924035;29;20051;-85
2022/05/25 13:06:08;;;;;;;2.55;1.80;;;18.80;99.90;;;;;;4927685;29;20052;-86
2022/05/25 13:08:50;;;;;;;1.92;1.55;;;19.00;99.90;;;;;;4925559;28;20043;-88
2022/05/25 13:11:36;;;;;;;2.08;1.92;;;19.10;99.90;;;;;;4905643;29;20123;-86
2022/05/25 13:14:25;;;;;;;4.10;1.67;;;19.20;99.90;;;;;;4922752;29;20043;-86
2022/05/25 13:16:56;;;;;;;3.37;2.03;;;19.20;99.90;;;;;;4924078;29;20055;-87
2022/05/25 13:22:27;;;;;;;3.95;1.45;;;18.90;99.90;;;;;;4928191;29;20055;-86
2022/05/25 13:25:03;;;;;;;7.30;3.25;;;19.10;99.90;;;;;;4922359;29;20078;-86
2022/05/25 13:27:58;;;;;;;2.50;1.38;;;19.10;99.90;;;;;;4920646;29;20056;-87
2022/05/25 13:30:46;;;;;;;3.67;3.38;;;19.40;99.90;;;;;;4926585;29;20047;-87
2022/05/25 13:33:23;;;;;;;2.70;1.80;;;19.70;99.90;;;;;;4925509;29;20548;-87
2022/05/25 13:36:14;;;;;;;3.20;2.15;;;19.70;99.90;;;;;;4923167;29;20067;-87
2022/05/25 13:38:49;;;;;;;2.22;1.63;;;19.60;99.90;;;;;;4923680;29;20051;-87
2022/05/25 13:41:22;;;;;;;4.53;1.48;;;19.50;99.90;;;;;;4925003;29;20233;-88
2022/05/25 13:44:18;;;;;;;2.78;1.33;;;19.30;99.90;;;;;;4913562;29;20113;-87
2022/05/25 13:46:44;;;;;;;1.95;1.42;;;19.20;99.90;;;;;;4896971;29;20056;-88